createdAt,value
2022-10-08T00:00:02.501Z,88.4
2022-10-08T00:15:02.839Z,88.2
2022-10-08T00:30:02.502Z,88.6
2022-10-08T00:45:02.765Z,88.5
2022-10-08T01:00:03.210Z,88.1
2022-10-08T01:15:02.585Z,87.9
2022-10-08T01:30:03.080Z,88.1
2022-10-08T01:45:02.657Z,88.4
2022-10-08T02:00:02.927Z,88.4
2022-10-08T02:15:02.506Z,88.1
2022-10-08T02:30:02.822Z,87.9
2022-10-08T02:45:03.261Z,87.8
2022-10-08T03:00:02.675Z,87.9
2022-10-08T03:15:03.193Z,87.8
2022-10-08T03:30:02.590Z,87.8
2022-10-08T03:45:03.037Z,88.0
2022-10-08T04:00:02.555Z,88.4
2022-10-08T04:15:02.926Z,88.3
2022-10-08T04:30:02.556Z,88.7
2022-10-08T04:45:02.802Z,89.3
2022-10-08T05:00:18.282Z,89.6
2022-10-08T05:15:02.633Z,90.1
2022-10-08T05:30:03.102Z,91.3
2022-10-08T05:45:02.575Z,91.8
2022-10-08T06:00:02.988Z,92.5
2022-10-08T06:15:02.547Z,93.0
2022-10-08T06:30:02.873Z,93.2
2022-10-08T06:45:02.667Z,93.3
2022-10-08T07:00:02.750Z,93.4
2022-10-08T07:15:03.197Z,93.6
2022-10-08T07:30:02.608Z,93.7
2022-10-08T07:45:03.081Z,93.9
2022-10-08T08:00:02.568Z,94.0
2022-10-08T08:15:02.954Z,93.5
2022-10-08T08:30:02.608Z,92.7
2022-10-08T08:45:02.841Z,92.0
2022-10-08T09:00:03.315Z,90.4
2022-10-08T09:15:02.700Z,87.4
2022-10-08T09:30:03.166Z,84.8
2022-10-08T09:45:02.590Z,80.4
2022-10-08T10:00:03.037Z,74.9
2022-10-08T10:15:02.618Z,66.1
2022-10-08T10:30:02.890Z,59.4
2022-10-08T10:45:02.341Z,57.9
2022-10-08T11:00:02.743Z,55.1
2022-10-08T11:15:03.209Z,50.5
2022-10-08T11:30:02.647Z,50.1
2022-10-08T11:45:03.072Z,49.8
2022-10-08T12:00:08.055Z,48.7
2022-10-08T12:15:02.985Z,46.3
2022-10-08T12:30:02.630Z,49.3
2022-10-08T12:45:02.853Z,48.4
2022-10-08T13:00:02.306Z,52.3
2022-10-08T13:15:02.718Z,66.2
2022-10-08T13:30:03.185Z,75.4
2022-10-08T13:45:02.665Z,77.0
2022-10-08T14:00:03.119Z,73.8
2022-10-08T14:15:02.671Z,74.6
2022-10-08T14:30:02.905Z,77.1
2022-10-08T14:45:02.366Z,76.7
2022-10-08T15:00:02.819Z,73.8
2022-10-08T15:15:03.251Z,72.0
2022-10-08T15:30:02.724Z,71.3
2022-10-08T15:45:03.147Z,70.0
2022-10-08T16:00:02.745Z,68.4
2022-10-08T16:15:03.046Z,67.6
2022-10-08T16:30:02.679Z,69.2
2022-10-08T16:45:02.896Z,70.9
2022-10-08T17:00:02.373Z,72.1
2022-10-08T17:15:02.825Z,72.2
2022-10-08T17:30:02.253Z,73.2
2022-10-08T17:45:02.708Z,75.1
2022-10-08T18:00:03.211Z,74.0
2022-10-08T18:15:02.706Z,74.2
2022-10-08T18:30:03.032Z,74.3
2022-10-08T18:45:02.445Z,74.8
2022-10-08T19:00:02.893Z,75.2
2022-10-08T19:15:02.336Z,76.2
2022-10-08T19:30:02.756Z,76.8
2022-10-08T19:45:03.228Z,77.1
2022-10-08T20:00:02.710Z,78.0
2022-10-08T20:15:03.114Z,78.4
2022-10-08T20:30:02.722Z,79.1
2022-10-08T20:45:02.998Z,79.5
2022-10-08T21:00:02.454Z,80.1
2022-10-08T21:15:02.852Z,80.8
2022-10-08T21:30:02.322Z,81.2
2022-10-08T21:45:02.748Z,81.9
2022-10-08T22:00:03.193Z,82.7
2022-10-08T22:15:02.751Z,83.8
2022-10-08T22:30:02.070Z,83.8
2022-10-08T22:45:02.691Z,83.9
2022-10-08T23:00:02.961Z,84.3
2022-10-08T23:15:02.382Z,84.3
2022-10-08T23:30:02.820Z,85.2
2022-10-08T23:45:02.262Z,85.3
